Time;durP1;ratioP1;P1;durP2;ratioP2;P2;SDS_P1;SDS_P2;PMS_P1;PMS_P2;Temp;Humidity;BMP_temperature;BMP_pressure;BME280_temperature;BME280_humidity;BME280_pressure;Samples;Min_cycle;Max_cycle;Signal;HPM_P1;HPM_P2
2023/01/19 00:00:09;;;;;;;10.60;8.50;;;;;;;;;;523265;28;1464;-66
2023/01/19 00:00:25;;;;;;;9.82;8.40;;;;;;;;;;524556;28;1058;-66
2023/01/19 00:00:40;;;;;;;9.43;8.30;;;;;;;;;;525997;28;1153;-66
2023/01/19 00:00:56;;;;;;;10.03;8.20;;;;;;;;;;522784;28;1384;-66
2023/01/19 00:01:11;;;;;;;9.70;8.13;;;;;;;;;;523504;28;1381;-65
2023/01/19 00:01:26;;;;;;;9.63;8.50;;;;;;;;;;522587;28;1101;-65
2023/01/19 00:01:42;;;;;;;11.00;8.80;;;;;;;;;;522054;28;1064;-65
2023/01/19 00:01:57;;;;;;;11.43;9.15;;;;;;;;;;523698;28;1918;-66
2023/01/19 00:02:12;;;;;;;11.07;9.10;;;;;;;;;;523222;28;1173;-65
2023/01/19 00:02:27;;;;;;;10.73;8.90;;;;;;;;;;523569;28;1145;-65
2023/01/19 00:02:46;;;;;;;12.03;9.10;;;;;;;;;;521740;28;1297;-65
2023/01/19 00:03:03;;;;;;;11.13;9.20;;;;;;;;;;522467;28;1449;-65
2023/01/19 00:03:18;;;;;;;9.98;8.90;;;;;;;;;;524730;28;1396;-65
2023/01/19 00:03:34;;;;;;;11.50;9.02;;;;;;;;;;525153;28;1588;-65
2023/01/19 00:03:49;;;;;;;13.00;9.40;;;;;;;;;;523687;28;1198;-65
2023/01/19 00:04:05;;;;;;;12.70;9.60;;;;;;;;;;522192;28;1197;-64
2023/01/19 00:04:20;;;;;;;11.00;8.82;;;;;;;;;;522951;28;1118;-64
2023/01/19 00:04:36;;;;;;;9.82;8.50;;;;;;;;;;521859;28;1262;-64
2023/01/19 00:04:51;;;;;;;10.80;8.93;;;;;;;;;;520940;28;1468;-64
2023/01/19 00:05:06;;;;;;;11.23;9.00;;;;;;;;;;523966;28;1455;-65
2023/01/19 00:05:22;;;;;;;11.23;8.95;;;;;;;;;;520495;28;1211;-65
2023/01/19 00:05:37;;;;;;;11.33;8.80;;;;;;;;;;523663;28;1197;-65
2023/01/19 00:05:53;;;;;;;11.13;8.90;;;;;;;;;;521918;28;1165;-65
2023/01/19 00:06:08;;;;;;;11.05;9.25;;;;;;;;;;524243;28;1074;-65
2023/01/19 00:06:24;;;;;;;11.77;9.38;;;;;;;;;;524245;28;1345;-66
2023/01/19 00:06:39;;;;;;;12.07;9.73;;;;;;;;;;522446;28;1200;-66
2023/01/19 00:06:54;;;;;;;12.02;9.75;;;;;;;;;;521505;28;1207;-65
2023/01/19 00:07:09;;;;;;;11.40;9.17;;;;;;;;;;519576;28;1286;-65
2023/01/19 00:07:25;;;;;;;11.13;9.00;;;;;;;;;;523411;28;1153;-65
2023/01/19 00:07:40;;;;;;;10.40;8.97;;;;;;;;;;522872;28;1109;-65
2023/01/19 00:08:13;;;;;;;10.43;9.00;;;;;;;;;;523701;28;1113;-66
2023/01/19 00:08:28;;;;;;;10.48;8.77;;;;;;;;;;523219;28;2263;-65
2023/01/19 00:08:44;;;;;;;10.60;8.97;;;;;;;;;;522308;28;1744;-65
2023/01/19 00:09:00;;;;;;;10.75;9.13;;;;;;;;;;525896;28;1137;-65
2023/01/19 00:09:15;;;;;;;10.73;8.97;;;;;;;;;;524415;28;1109;-65
2023/01/19 00:09:32;;;;;;;9.90;8.43;;;;;;;;;;522827;28;1381;-65
2023/01/19 00:09:47;;;;;;;9.43;8.07;;;;;;;;;;523947;28;1022;-65
2023/01/19 00:10:03;;;;;;;10.03;8.40;;;;;;;;;;520706;28;1211;-65
2023/01/19 00:10:18;;;;;;;10.52;8.77;;;;;;;;;;519783;28;1209;-65
2023/01/19 00:10:33;;;;;;;10.77;9.00;;;;;;;;;;519272;28;1155;-65
2023/01/19 00:10:52;;;;;;;11.17;9.20;;;;;;;;;;520282;28;1475;-65
2023/01/19 00:11:07;;;;;;;10.57;8.93;;;;;;;;;;519288;28;1616;-65
2023/01/19 00:11:23;;;;;;;10.33;8.80;;;;;;;;;;517837;28;1304;-65
2023/01/19 00:11:38;;;;;;;10.63;8.90;;;;;;;;;;516574;28;1664;-65
2023/01/19 00:11:53;;;;;;;9.57;8.57;;;;;;;;;;517165;28;1192;-65
2023/01/19 00:12:09;;;;;;;9.77;8.50;;;;;;;;;;519223;28;1206;-65
2023/01/19 00:12:25;;;;;;;12.37;9.47;;;;;;;;;;519549;28;1094;-65
2023/01/19 00:12:40;;;;;;;13.63;10.18;;;;;;;;;;518434;28;1338;-65
2023/01/19 00:12:55;;;;;;;14.73;10.70;;;;;;;;;;518765;28;1130;-65
2023/01/19 00:13:11;;;;;;;14.70;10.85;;;;;;;;;;522183;28;1138;-65
2023/01/19 00:13:27;;;;;;;12.37;10.10;;;;;;;;;;521248;28;1185;-65
2023/01/19 00:13:48;;;;;;;12.38;9.80;;;;;;;;;;522954;28;1164;-66
2023/01/19 00:14:04;;;;;;;12.48;10.10;;;;;;;;;;524911;28;1017;-65
2023/01/19 00:14:19;;;;;;;11.63;9.85;;;;;;;;;;523733;28;1366;-65
2023/01/19 00:14:34;;;;;;;11.00;9.60;;;;;;;;;;525060;28;1204;-65
2023/01/19 00:14:49;;;;;;;11.27;9.23;;;;;;;;;;521591;28;1377;-65
2023/01/19 00:15:05;;;;;;;12.80;9.83;;;;;;;;;;523229;28;1049;-66
2023/01/19 00:15:21;;;;;;;13.25;10.35;;;;;;;;;;523615;28;1207;-66
2023/01/19 00:15:36;;;;;;;13.30;10.07;;;;;;;;;;524174;27;1306;-66
2023/01/19 00:15:51;;;;;;;13.10;9.93;;;;;;;;;;526058;28;1289;-65
2023/01/19 00:16:06;;;;;;;13.02;10.23;;;;;;;;;;524016;28;1164;-65
2023/01/19 00:16:22;;;;;;;15.67;10.90;;;;;;;;;;522677;28;1338;-65
2023/01/19 00:16:37;;;;;;;17.57;11.73;;;;;;;;;;523306;28;1196;-65
2023/01/19 00:16:53;;;;;;;17.40;11.85;;;;;;;;;;524867;28;1219;-65
2023/01/19 00:17:08;;;;;;;15.60;11.00;;;;;;;;;;525479;28;1081;-65
2023/01/19 00:17:23;;;;;;;14.95;10.43;;;;;;;;;;522861;28;1226;-65
2023/01/19 00:17:39;;;;;;;15.77;10.53;;;;;;;;;;521836;28;1246;-65
2023/01/19 00:17:55;;;;;;;15.35;10.77;;;;;;;;;;521932;28;1281;-65
2023/01/19 00:18:10;;;;;;;15.20;11.03;;;;;;;;;;520684;28;1241;-65
2023/01/19 00:18:25;;;;;;;15.90;11.45;;;;;;;;;;518912;28;1231;-66
2023/01/19 00:18:41;;;;;;;15.23;11.10;;;;;;;;;;519051;28;1302;-65
2023/01/19 00:18:56;;;;;;;13.68;10.85;;;;;;;;;;518642;28;1257;-65
2023/01/19 00:19:11;;;;;;;13.57;10.77;;;;;;;;;;520927;28;1303;-65
2023/01/19 00:19:27;;;;;;;13.40;10.30;;;;;;;;;;520794;28;1167;-65
2023/01/19 00:19:42;;;;;;;13.90;10.50;;;;;;;;;;520706;28;1374;-65
2023/01/19 00:19:58;;;;;;;14.20;10.77;;;;;;;;;;520377;28;1187;-65
2023/01/19 00:20:13;;;;;;;13.45;10.55;;;;;;;;;;520292;28;1198;-65
2023/01/19 00:20:30;;;;;;;13.03;10.47;;;;;;;;;;521474;28;1179;-65
2023/01/19 00:20:47;;;;;;;14.68;10.40;;;;;;;;;;521797;28;1003;-65
2023/01/19 00:21:02;;;;;;;15.80;10.73;;;;;;;;;;520444;28;1372;-65
2023/01/19 00:21:18;;;;;;;15.63;10.63;;;;;;;;;;522079;28;1090;-65
2023/01/19 00:21:33;;;;;;;15.48;10.40;;;;;;;;;;519507;28;1355;-65
2023/01/19 00:21:48;;;;;;;14.17;10.50;;;;;;;;;;521323;28;1934;-65
2023/01/19 00:22:04;;;;;;;14.40;10.70;;;;;;;;;;521870;28;1169;-65
2023/01/19 00:22:20;;;;;;;14.30;10.38;;;;;;;;;;523888;28;1011;-65
2023/01/19 00:22:35;;;;;;;12.97;10.27;;;;;;;;;;525693;28;1168;-65
2023/01/19 00:22:50;;;;;;;11.97;10.03;;;;;;;;;;523900;28;1296;-65
2023/01/19 00:23:06;;;;;;;15.45;11.18;;;;;;;;;;524303;28;1152;-65
2023/01/19 00:23:22;;;;;;;18.25;12.20;;;;;;;;;;523381;28;1003;-65
2023/01/19 00:23:37;;;;;;;15.90;10.87;;;;;;;;;;523936;28;1268;-66
2023/01/19 00:23:52;;;;;;;14.02;9.98;;;;;;;;;;525569;28;1177;-65
2023/01/19 00:24:09;;;;;;;12.60;9.97;;;;;;;;;;523694;28;1233;-65
2023/01/19 00:24:24;;;;;;;14.07;10.35;;;;;;;;;;522584;28;1212;-65
2023/01/19 00:24:40;;;;;;;14.77;10.40;;;;;;;;;;523169;28;1244;-65
2023/01/19 00:24:55;;;;;;;13.57;9.93;;;;;;;;;;525548;28;1097;-65
2023/01/19 00:25:10;;;;;;;12.55;9.80;;;;;;;;;;525766;28;1086;-65
2023/01/19 00:25:26;;;;;;;12.23;9.50;;;;;;;;;;524823;27;1243;-65
2023/01/19 00:25:42;;;;;;;11.40;9.10;;;;;;;;;;525893;28;1209;-65
2023/01/19 00:25:57;;;;;;;11.48;9.32;;;;;;;;;;526173;28;1015;-65
2023/01/19 00:26:15;;;;;;;13.13;9.60;;;;;;;;;;525436;28;1023;-65
2023/01/19 00:26:30;;;;;;;12.23;9.48;;;;;;;;;;523144;28;1298;-65
2023/01/19 00:26:46;;;;;;;11.32;9.35;;;;;;;;;;522787;28;1287;-64
2023/01/19 00:27:02;;;;;;;11.10;9.47;;;;;;;;;;521041;28;1236;-65
2023/01/19 00:27:18;;;;;;;10.82;9.18;;;;;;;;;;520517;28;1301;-65
2023/01/19 00:27:33;;;;;;;11.65;9.60;;;;;;;;;;521692;28;1387;-65
2023/01/19 00:27:49;;;;;;;11.50;9.83;;;;;;;;;;519885;28;1378;-65
2023/01/19 00:28:04;;;;;;;11.30;9.68;;;;;;;;;;521041;28;1224;-65
2023/01/19 00:28:19;;;;;;;11.27;9.60;;;;;;;;;;521805;28;1090;-65
2023/01/19 00:28:35;;;;;;;12.20;9.47;;;;;;;;;;518205;28;1421;-66
2023/01/19 00:28:51;;;;;;;12.32;9.50;;;;;;;;;;519586;28;1269;-65
2023/01/19 00:29:10;;;;;;;11.82;9.50;;;;;;;;;;521078;28;1212;-66
2023/01/19 00:29:26;;;;;;;11.40;9.30;;;;;;;;;;523820;28;1113;-66
2023/01/19 00:29:41;;;;;;;12.27;9.48;;;;;;;;;;526152;28;1277;-65
2023/01/19 00:29:57;;;;;;;10.60;8.90;;;;;;;;;;525648;27;1210;-65
2023/01/19 00:30:12;;;;;;;9.63;8.60;;;;;;;;;;523923;28;1324;-65
2023/01/19 00:30:28;;;;;;;11.37;9.20;;;;;;;;;;525325;28;1107;-66
2023/01/19 00:30:44;;;;;;;12.93;9.82;;;;;;;;;;526423;28;1224;-65
2023/01/19 00:30:59;;;;;;;13.57;10.25;;;;;;;;;;522534;28;1258;-64
2023/01/19 00:31:14;;;;;;;13.47;10.37;;;;;;;;;;522442;28;1209;-65
2023/01/19 00:31:32;;;;;;;13.75;10.57;;;;;;;;;;524017;28;1153;-65
2023/01/19 00:31:48;;;;;;;13.23;10.38;;;;;;;;;;523113;28;1400;-65
2023/01/19 00:32:04;;;;;;;13.67;10.67;;;;;;;;;;525545;28;1129;-65
2023/01/19 00:32:19;;;;;;;13.20;10.43;;;;;;;;;;525364;28;1337;-66
2023/01/19 00:32:35;;;;;;;13.03;10.00;;;;;;;;;;524364;28;1148;-65
2023/01/19 00:32:50;;;;;;;12.53;9.53;;;;;;;;;;522645;28;1278;-65
2023/01/19 00:33:05;;;;;;;11.73;9.60;;;;;;;;;;520878;28;1420;-65
2023/01/19 00:33:21;;;;;;;12.73;9.85;;;;;;;;;;523579;28;1392;-65
2023/01/19 00:33:36;;;;;;;12.07;9.63;;;;;;;;;;521493;28;1102;-65
2023/01/19 00:33:51;;;;;;;10.65;9.55;;;;;;;;;;524036;28;1077;-65
2023/01/19 00:34:06;;;;;;;10.70;9.60;;;;;;;;;;522895;28;1216;-65
2023/01/19 00:34:22;;;;;;;11.10;9.57;;;;;;;;;;520615;28;1732;-65
2023/01/19 00:34:38;;;;;;;10.77;9.20;;;;;;;;;;521737;28;963;-65
2023/01/19 00:34:54;;;;;;;10.35;9.05;;;;;;;;;;523035;28;1029;-65
2023/01/19 00:35:09;;;;;;;10.83;8.97;;;;;;;;;;525536;27;1176;-66
2023/01/19 00:35:24;;;;;;;11.43;8.95;;;;;;;;;;524783;28;1250;-65
2023/01/19 00:35:43;;;;;;;15.27;11.07;;;;;;;;;;525813;28;1137;-65
2023/01/19 00:35:58;;;;;;;19.02;13.38;;;;;;;;;;524388;27;1040;-64
2023/01/19 00:36:15;;;;;;;16.50;12.00;;;;;;;;;;526911;27;1217;-65
2023/01/19 00:36:30;;;;;;;16.50;11.93;;;;;;;;;;525700;28;1295;-65
2023/01/19 00:36:45;;;;;;;17.70;12.17;;;;;;;;;;522266;28;1278;-65
2023/01/19 00:37:10;;;;;;;15.57;10.93;;;;;;;;;;522076;28;1050;-65
2023/01/19 00:37:25;;;;;;;12.63;9.93;;;;;;;;;;522319;28;1141;-66
2023/01/19 00:37:44;;;;;;;11.50;9.45;;;;;;;;;;523660;28;1187;-65
2023/01/19 00:38:00;;;;;;;11.15;9.13;;;;;;;;;;521251;28;1539;-65
2023/01/19 00:38:16;;;;;;;10.38;9.02;;;;;;;;;;520059;28;1309;-65
2023/01/19 00:38:31;;;;;;;10.00;9.00;;;;;;;;;;523731;28;1396;-65
2023/01/19 00:38:46;;;;;;;10.20;9.10;;;;;;;;;;519806;28;1200;-65
2023/01/19 00:39:02;;;;;;;11.27;9.47;;;;;;;;;;521615;28;1122;-65
2023/01/19 00:39:17;;;;;;;11.30;9.20;;;;;;;;;;521908;28;979;-65
2023/01/19 00:39:32;;;;;;;10.87;8.63;;;;;;;;;;518001;28;1391;-65
2023/01/19 00:39:47;;;;;;;10.07;8.50;;;;;;;;;;521879;28;1095;-65
2023/01/19 00:40:03;;;;;;;10.38;9.00;;;;;;;;;;523866;28;1317;-65
2023/01/19 00:40:18;;;;;;;10.57;9.07;;;;;;;;;;521282;28;1185;-65
2023/01/19 00:40:34;;;;;;;10.93;9.20;;;;;;;;;;523317;28;1161;-65
2023/01/19 00:40:49;;;;;;;10.43;8.93;;;;;;;;;;521967;28;1254;-65
2023/01/19 00:41:05;;;;;;;10.67;8.83;;;;;;;;;;523737;28;1086;-66
2023/01/19 00:42:38;;;;;;;11.38;9.10;;;;;;;;;;523476;28;1082;-66
2023/01/19 00:42:43;;;;;;;11.95;9.25;;;;;;;;;;526241;27;1182;-65
2023/01/19 00:42:59;;;;;;;12.32;9.27;;;;;;;;;;527741;27;1203;-66
2023/01/19 00:43:14;;;;;;;13.82;9.85;;;;;;;;;;527692;27;1323;-66
2023/01/19 00:43:29;;;;;;;14.07;9.95;;;;;;;;;;527941;27;1100;-66
2023/01/19 00:43:45;;;;;;;13.20;9.60;;;;;;;;;;527554;27;1013;-66
2023/01/19 00:44:00;;;;;;;11.83;9.37;;;;;;;;;;525652;28;1261;-66
2023/01/19 00:44:15;;;;;;;11.32;9.27;;;;;;;;;;525413;28;1183;-65
2023/01/19 00:44:31;;;;;;;12.60;9.50;;;;;;;;;;525388;28;1068;-66
2023/01/19 00:44:46;;;;;;;12.07;9.37;;;;;;;;;;523588;28;1242;-65
2023/01/19 00:45:01;;;;;;;10.88;8.90;;;;;;;;;;523678;28;1157;-66
2023/01/19 00:45:19;;;;;;;13.10;9.63;;;;;;;;;;525558;28;1281;-66
2023/01/19 00:45:35;;;;;;;13.27;9.70;;;;;;;;;;523003;28;1211;-66
2023/01/19 00:45:50;;;;;;;11.85;9.15;;;;;;;;;;524174;28;1269;-66
2023/01/19 00:46:05;;;;;;;12.00;9.53;;;;;;;;;;525786;28;1396;-66
2023/01/19 00:46:25;;;;;;;12.60;9.80;;;;;;;;;;522082;28;1215;-65
2023/01/19 00:46:41;;;;;;;15.07;9.85;;;;;;;;;;523253;28;998;-66
2023/01/19 00:46:56;;;;;;;14.40;9.60;;;;;;;;;;520438;28;1174;-66
2023/01/19 00:47:11;;;;;;;12.53;9.43;;;;;;;;;;521363;28;1179;-66
2023/01/19 00:47:27;;;;;;;11.43;9.40;;;;;;;;;;520457;28;1325;-66
2023/01/19 00:47:42;;;;;;;12.10;9.43;;;;;;;;;;520850;28;1082;-66
2023/01/19 00:47:58;;;;;;;14.53;10.13;;;;;;;;;;521407;28;1207;-66
2023/01/19 00:48:13;;;;;;;17.08;11.07;;;;;;;;;;520815;28;1304;-66
2023/01/19 00:48:29;;;;;;;16.30;10.60;;;;;;;;;;518581;28;1304;-66
2023/01/19 00:48:44;;;;;;;15.32;10.13;;;;;;;;;;521473;28;1121;-66
2023/01/19 00:49:00;;;;;;;15.25;10.23;;;;;;;;;;522067;28;1100;-66
2023/01/19 00:49:15;;;;;;;13.73;9.80;;;;;;;;;;521493;28;1317;-66
2023/01/19 00:49:30;;;;;;;12.23;9.63;;;;;;;;;;520231;28;1178;-66
2023/01/19 00:49:45;;;;;;;12.07;9.60;;;;;;;;;;521013;28;1165;-65
2023/01/19 00:50:01;;;;;;;11.57;9.10;;;;;;;;;;521732;28;1643;-66
2023/01/19 00:50:16;;;;;;;10.63;8.50;;;;;;;;;;523078;28;1078;-66
2023/01/19 00:50:32;;;;;;;11.73;8.57;;;;;;;;;;524868;28;1116;-66
2023/01/19 00:50:48;;;;;;;11.48;8.70;;;;;;;;;;525620;28;1129;-66
2023/01/19 00:51:03;;;;;;;9.70;8.07;;;;;;;;;;523986;28;1129;-66
2023/01/19 00:51:18;;;;;;;9.83;8.03;;;;;;;;;;525594;28;1206;-66
2023/01/19 00:51:34;;;;;;;10.53;8.40;;;;;;;;;;523335;28;1305;-66
2023/01/19 00:51:49;;;;;;;10.57;8.37;;;;;;;;;;520504;28;1155;-66
2023/01/19 00:52:05;;;;;;;10.07;8.35;;;;;;;;;;520762;28;1453;-65
2023/01/19 00:52:20;;;;;;;10.33;8.73;;;;;;;;;;517824;28;1166;-66
2023/01/19 00:52:35;;;;;;;10.93;8.80;;;;;;;;;;519381;28;1226;-66
2023/01/19 00:52:52;;;;;;;11.60;8.83;;;;;;;;;;520975;28;1297;-65
2023/01/19 00:53:07;;;;;;;10.70;8.80;;;;;;;;;;520858;28;1012;-66
2023/01/19 00:53:22;;;;;;;9.82;8.40;;;;;;;;;;521090;28;1055;-66
2023/01/19 00:53:38;;;;;;;10.50;8.60;;;;;;;;;;522758;28;1584;-66
2023/01/19 00:53:53;;;;;;;10.50;8.97;;;;;;;;;;523462;28;1259;-66
2023/01/19 00:54:09;;;;;;;10.27;8.77;;;;;;;;;;523785;28;1365;-66
2023/01/19 00:54:24;;;;;;;10.70;8.57;;;;;;;;;;521451;28;1403;-66
2023/01/19 00:54:39;;;;;;;11.98;8.77;;;;;;;;;;518896;28;1245;-66
2023/01/19 00:54:54;;;;;;;11.53;8.87;;;;;;;;;;518294;28;1094;-66
2023/01/19 00:55:12;;;;;;;10.77;8.83;;;;;;;;;;517027;28;1157;-65
2023/01/19 00:55:29;;;;;;;11.02;8.95;;;;;;;;;;516033;28;1213;-66
2023/01/19 00:55:44;;;;;;;10.48;8.93;;;;;;;;;;519290;28;1185;-66
2023/01/19 00:56:00;;;;;;;11.00;8.70;;;;;;;;;;518605;28;1303;-66
2023/01/19 00:56:16;;;;;;;10.52;8.38;;;;;;;;;;519092;28;1270;-66
2023/01/19 00:56:31;;;;;;;10.80;8.95;;;;;;;;;;520696;28;989;-66
2023/01/19 00:56:46;;;;;;;10.70;8.93;;;;;;;;;;523132;28;1090;-66
2023/01/19 00:57:02;;;;;;;12.13;9.07;;;;;;;;;;520310;28;1293;-66
2023/01/19 00:57:18;;;;;;;13.38;9.43;;;;;;;;;;522401;28;1074;-66
2023/01/19 00:57:33;;;;;;;11.23;8.82;;;;;;;;;;523600;28;1266;-66
2023/01/19 00:57:49;;;;;;;11.43;8.80;;;;;;;;;;523394;28;1175;-66
2023/01/19 00:58:06;;;;;;;12.00;9.00;;;;;;;;;;525944;27;999;-65
2023/01/19 00:58:21;;;;;;;11.65;8.95;;;;;;;;;;526958;27;953;-66
2023/01/19 00:58:36;;;;;;;12.50;9.33;;;;;;;;;;526925;27;1108;-66
2023/01/19 00:58:52;;;;;;;11.55;9.10;;;;;;;;;;525906;28;1548;-65
2023/01/19 00:59:07;;;;;;;11.90;9.40;;;;;;;;;;525775;28;1384;-66
2023/01/19 00:59:24;;;;;;;13.67;10.13;;;;;;;;;;523909;28;1424;-65
2023/01/19 00:59:39;;;;;;;14.60;10.25;;;;;;;;;;524237;28;1400;-66
2023/01/19 00:59:55;;;;;;;14.48;10.38;;;;;;;;;;522734;28;1214;-66
2023/01/19 01:00:14;;;;;;;14.90;10.27;;;;;;;;;;521860;28;1162;-65
2023/01/19 01:00:29;;;;;;;13.00;9.70;;;;;;;;;;519805;28;1038;-65
2023/01/19 01:00:45;;;;;;;13.45;9.60;;;;;;;;;;521303;28;1333;-65
2023/01/19 01:01:02;;;;;;;13.67;9.73;;;;;;;;;;521714;28;1374;-66
2023/01/19 01:01:17;;;;;;;11.93;9.80;;;;;;;;;;523875;28;1045;-66
2023/01/19 01:01:32;;;;;;;11.73;9.70;;;;;;;;;;522768;28;1208;-65
2023/01/19 01:01:48;;;;;;;13.70;10.20;;;;;;;;;;521226;28;1924;-66
2023/01/19 01:02:03;;;;;;;15.30;10.60;;;;;;;;;;522863;28;1373;-66
2023/01/19 01:02:18;;;;;;;15.83;10.47;;;;;;;;;;523829;28;1209;-65
2023/01/19 01:02:34;;;;;;;15.13;10.48;;;;;;;;;;524112;28;1141;-66
2023/01/19 01:02:51;;;;;;;13.47;10.43;;;;;;;;;;524465;28;1243;-66
2023/01/19 01:03:06;;;;;;;15.48;11.30;;;;;;;;;;525685;28;1105;-65
2023/01/19 01:03:26;;;;;;;25.13;14.03;;;;;;;;;;525403;28;1202;-65
2023/01/19 01:03:41;;;;;;;21.95;13.50;;;;;;;;;;523902;28;2018;-66
2023/01/19 01:03:57;;;;;;;12.13;9.63;;;;;;;;;;525736;28;1157;-66
2023/01/19 01:04:13;;;;;;;13.35;9.90;;;;;;;;;;523457;28;1243;-66
2023/01/19 01:04:28;;;;;;;12.70;9.90;;;;;;;;;;523743;28;1082;-65
2023/01/19 01:04:44;;;;;;;12.90;10.05;;;;;;;;;;522252;28;1243;-66
2023/01/19 01:05:01;;;;;;;15.87;11.47;;;;;;;;;;522234;28;1340;-66
2023/01/19 01:05:18;;;;;;;17.77;11.95;;;;;;;;;;524706;28;1062;-66
2023/01/19 01:05:33;;;;;;;17.65;12.32;;;;;;;;;;526123;27;1098;-64
2023/01/19 01:05:49;;;;;;;14.93;11.70;;;;;;;;;;525560;28;1255;-65
2023/01/19 01:06:07;;;;;;;13.07;10.60;;;;;;;;;;526374;27;1152;-66
2023/01/19 01:06:22;;;;;;;14.32;11.02;;;;;;;;;;524229;28;1289;-66
2023/01/19 01:06:37;;;;;;;14.30;10.97;;;;;;;;;;525731;28;1160;-65
2023/01/19 01:06:53;;;;;;;12.40;9.93;;;;;;;;;;524806;28;1167;-65
2023/01/19 01:07:08;;;;;;;11.48;9.45;;;;;;;;;;524683;28;1085;-66
2023/01/19 01:07:23;;;;;;;12.93;9.93;;;;;;;;;;525588;28;1216;-66
2023/01/19 01:07:40;;;;;;;13.13;10.00;;;;;;;;;;526036;28;1190;-65
2023/01/19 01:07:55;;;;;;;12.20;9.73;;;;;;;;;;524331;28;1380;-66
2023/01/19 01:08:10;;;;;;;12.07;9.70;;;;;;;;;;524399;28;1196;-66
2023/01/19 01:08:25;;;;;;;11.73;9.63;;;;;;;;;;523900;28;1408;-66
2023/01/19 01:08:41;;;;;;;12.27;9.50;;;;;;;;;;523758;28;1106;-65
2023/01/19 01:08:56;;;;;;;12.53;9.73;;;;;;;;;;522693;28;1177;-65
2023/01/19 01:09:11;;;;;;;12.10;9.90;;;;;;;;;;523070;28;1256;-65
2023/01/19 01:09:27;;;;;;;12.05;9.82;;;;;;;;;;521419;28;1332;-65
2023/01/19 01:09:42;;;;;;;11.63;9.73;;;;;;;;;;521216;28;1431;-65
2023/01/19 01:09:57;;;;;;;11.40;9.77;;;;;;;;;;522433;28;1297;-65
2023/01/19 01:10:14;;;;;;;12.38;9.68;;;;;;;;;;523210;28;1202;-65
2023/01/19 01:10:29;;;;;;;12.30;9.55;;;;;;;;;;524689;28;985;-65
2023/01/19 01:10:45;;;;;;;12.53;9.70;;;;;;;;;;522822;28;1253;-65
2023/01/19 01:11:00;;;;;;;12.40;9.93;;;;;;;;;;521384;28;1281;-65
2023/01/19 01:11:15;;;;;;;11.52;10.05;;;;;;;;;;520441;28;1227;-65
2023/01/19 01:11:31;;;;;;;11.70;9.77;;;;;;;;;;519246;28;1303;-66
2023/01/19 01:11:46;;;;;;;12.30;9.63;;;;;;;;;;517462;28;1229;-65
2023/01/19 01:12:02;;;;;;;12.13;9.80;;;;;;;;;;519617;28;1074;-65
2023/01/19 01:12:17;;;;;;;12.10;9.70;;;;;;;;;;521213;28;1330;-66
2023/01/19 01:12:32;;;;;;;12.43;9.70;;;;;;;;;;518706;28;1295;-65
2023/01/19 01:12:48;;;;;;;11.47;9.47;;;;;;;;;;521377;28;1320;-65
2023/01/19 01:13:04;;;;;;;11.50;9.95;;;;;;;;;;519351;28;1504;-65
2023/01/19 01:13:19;;;;;;;11.77;10.27;;;;;;;;;;521953;28;1353;-66
2023/01/19 01:13:34;;;;;;;11.98;10.05;;;;;;;;;;520231;28;1373;-65
2023/01/19 01:13:49;;;;;;;12.47;10.13;;;;;;;;;;520594;28;998;-66
2023/01/19 01:14:05;;;;;;;11.57;9.90;;;;;;;;;;521478;28;1207;-65
2023/01/19 01:14:20;;;;;;;11.43;9.95;;;;;;;;;;520557;28;1194;-65
2023/01/19 01:14:35;;;;;;;12.17;10.30;;;;;;;;;;523928;28;1018;-65
2023/01/19 01:14:51;;;;;;;12.13;10.40;;;;;;;;;;524685;28;1178;-65
2023/01/19 01:15:09;;;;;;;11.70;10.02;;;;;;;;;;522621;28;1373;-65
2023/01/19 01:15:25;;;;;;;11.77;9.88;;;;;;;;;;522767;28;1017;-65
2023/01/19 01:15:41;;;;;;;12.63;10.10;;;;;;;;;;521494;28;1423;-65
2023/01/19 01:15:56;;;;;;;12.25;10.10;;;;;;;;;;519045;28;1340;-66
2023/01/19 01:16:14;;;;;;;11.60;10.07;;;;;;;;;;518483;28;1191;-65
2023/01/19 01:16:29;;;;;;;11.27;9.63;;;;;;;;;;519953;28;1271;-65
2023/01/19 01:16:45;;;;;;;11.93;9.77;;;;;;;;;;520208;28;1230;-65
2023/01/19 01:17:00;;;;;;;11.88;9.90;;;;;;;;;;520090;28;1481;-65
2023/01/19 01:17:15;;;;;;;11.87;10.20;;;;;;;;;;521556;28;1688;-65
2023/01/19 01:17:30;;;;;;;12.27;10.33;;;;;;;;;;521512;28;1350;-65
2023/01/19 01:17:46;;;;;;;12.00;10.27;;;;;;;;;;523390;28;1328;-64
2023/01/19 01:18:01;;;;;;;11.93;10.20;;;;;;;;;;521622;28;1210;-64
2023/01/19 01:18:17;;;;;;;12.07;10.13;;;;;;;;;;521370;28;1098;-64
2023/01/19 01:18:32;;;;;;;12.07;9.77;;;;;;;;;;520739;28;1213;-64
2023/01/19 01:18:47;;;;;;;11.57;9.60;;;;;;;;;;520508;28;1256;-64
2023/01/19 01:19:03;;;;;;;10.90;9.63;;;;;;;;;;521417;28;1636;-64
2023/01/19 01:19:18;;;;;;;11.47;9.50;;;;;;;;;;521386;28;1134;-64
2023/01/19 01:19:34;;;;;;;11.65;9.70;;;;;;;;;;523942;28;1509;-65
2023/01/19 01:19:50;;;;;;;11.03;9.77;;;;;;;;;;523688;28;1201;-64
2023/01/19 01:20:06;;;;;;;10.70;9.55;;;;;;;;;;524350;28;1241;-64
2023/01/19 01:20:26;;;;;;;10.80;9.55;;;;;;;;;;524592;28;1062;-64
2023/01/19 01:20:41;;;;;;;10.70;9.20;;;;;;;;;;521777;28;1411;-65
2023/01/19 01:21:04;;;;;;;11.20;9.40;;;;;;;;;;524586;28;1316;-65
2023/01/19 01:21:19;;;;;;;10.82;9.65;;;;;;;;;;525223;28;1385;-65
2023/01/19 01:21:36;;;;;;;10.17;9.17;;;;;;;;;;525713;28;1486;-65
2023/01/19 01:21:51;;;;;;;10.88;9.40;;;;;;;;;;523495;28;1927;-64
2023/01/19 01:22:08;;;;;;;11.23;9.35;;;;;;;;;;520576;28;1421;-64
2023/01/19 01:22:23;;;;;;;10.73;9.20;;;;;;;;;;520716;28;1420;-64
2023/01/19 01:22:39;;;;;;;10.80;9.00;;;;;;;;;;522753;28;986;-65
2023/01/19 01:22:56;;;;;;;11.98;9.27;;;;;;;;;;524429;28;1335;-65
2023/01/19 01:23:12;;;;;;;11.07;9.52;;;;;;;;;;523757;28;1262;-64
2023/01/19 01:23:28;;;;;;;10.93;9.45;;;;;;;;;;521870;28;1115;-64
2023/01/19 01:23:43;;;;;;;11.18;9.40;;;;;;;;;;520118;28;1200;-64
2023/01/19 01:23:59;;;;;;;11.23;9.67;;;;;;;;;;520859;28;1472;-64
2023/01/19 01:24:15;;;;;;;11.57;9.65;;;;;;;;;;522062;28;1176;-64
2023/01/19 01:24:30;;;;;;;11.88;9.48;;;;;;;;;;524407;28;1116;-64
2023/01/19 01:24:46;;;;;;;11.70;9.53;;;;;;;;;;521333;28;1259;-64
2023/01/19 01:25:01;;;;;;;10.60;9.20;;;;;;;;;;522874;28;1081;-64
2023/01/19 01:25:18;;;;;;;10.40;9.10;;;;;;;;;;523949;28;1148;-64
2023/01/19 01:25:36;;;;;;;10.85;9.00;;;;;;;;;;524320;28;1034;-64
2023/01/19 01:25:51;;;;;;;10.88;9.30;;;;;;;;;;526197;27;1116;-64
2023/01/19 01:26:07;;;;;;;11.23;9.63;;;;;;;;;;526489;28;1139;-64
2023/01/19 01:26:22;;;;;;;11.80;9.50;;;;;;;;;;523236;28;1210;-64
2023/01/19 01:26:37;;;;;;;11.93;9.60;;;;;;;;;;522801;28;1372;-65
2023/01/19 01:26:52;;;;;;;11.87;9.73;;;;;;;;;;524617;28;1078;-65
2023/01/19 01:27:08;;;;;;;11.27;9.30;;;;;;;;;;523557;28;1231;-64
2023/01/19 01:27:23;;;;;;;11.50;9.20;;;;;;;;;;522977;28;1138;-63
2023/01/19 01:27:39;;;;;;;11.97;9.63;;;;;;;;;;521907;28;1161;-64
2023/01/19 01:27:54;;;;;;;11.68;9.77;;;;;;;;;;522730;28;1058;-64
2023/01/19 01:28:10;;;;;;;11.00;9.63;;;;;;;;;;519973;28;1644;-64
2023/01/19 01:28:25;;;;;;;11.10;9.70;;;;;;;;;;522004;28;1401;-64
2023/01/19 01:28:40;;;;;;;11.97;10.00;;;;;;;;;;523206;28;1259;-64
2023/01/19 01:28:56;;;;;;;12.63;9.90;;;;;;;;;;523955;28;1088;-64
2023/01/19 01:29:11;;;;;;;13.30;9.80;;;;;;;;;;524788;28;1169;-64
2023/01/19 01:29:26;;;;;;;13.27;9.70;;;;;;;;;;523361;28;1200;-64
2023/01/19 01:29:45;;;;;;;12.88;9.77;;;;;;;;;;524730;28;1371;-65
2023/01/19 01:30:00;;;;;;;11.73;10.00;;;;;;;;;;525016;28;1419;-64
2023/01/19 01:30:15;;;;;;;11.97;9.87;;;;;;;;;;523641;28;1193;-64
2023/01/19 01:30:31;;;;;;;11.73;9.73;;;;;;;;;;524068;28;1165;-64
2023/01/19 01:30:46;;;;;;;10.70;9.60;;;;;;;;;;523401;28;1207;-64
2023/01/19 01:31:02;;;;;;;11.35;9.95;;;;;;;;;;525738;28;1200;-64
2023/01/19 01:31:17;;;;;;;11.10;9.67;;;;;;;;;;525371;28;1125;-64
2023/01/19 01:31:32;;;;;;;10.90;9.65;;;;;;;;;;522743;28;1478;-64
2023/01/19 01:31:48;;;;;;;11.07;9.63;;;;;;;;;;522175;28;1332;-64
2023/01/19 01:32:03;;;;;;;11.23;9.30;;;;;;;;;;523209;28;1199;-63
2023/01/19 01:32:18;;;;;;;11.95;9.77;;;;;;;;;;523439;28;1437;-64
2023/01/19 01:32:34;;;;;;;10.77;9.67;;;;;;;;;;522561;28;1175;-64
2023/01/19 01:32:49;;;;;;;10.77;9.60;;;;;;;;;;519543;28;1302;-64
2023/01/19 01:33:04;;;;;;;12.02;9.80;;;;;;;;;;519588;28;1223;-64
2023/01/19 01:33:20;;;;;;;11.43;9.47;;;;;;;;;;522646;28;1308;-64
2023/01/19 01:33:35;;;;;;;10.85;9.30;;;;;;;;;;523479;28;1421;-64
2023/01/19 01:33:51;;;;;;;11.10;9.30;;;;;;;;;;525662;28;1203;-65
2023/01/19 01:34:07;;;;;;;10.70;9.45;;;;;;;;;;524025;28;1149;-64
2023/01/19 01:34:22;;;;;;;10.40;9.30;;;;;;;;;;524152;28;1128;-66
2023/01/19 01:34:37;;;;;;;11.60;9.47;;;;;;;;;;523744;28;1154;-65
2023/01/19 01:34:52;;;;;;;11.50;9.70;;;;;;;;;;523314;28;1403;-65
2023/01/19 01:35:09;;;;;;;11.17;9.57;;;;;;;;;;523128;28;1250;-64
2023/01/19 01:35:24;;;;;;;11.48;9.77;;;;;;;;;;520423;28;1748;-64
2023/01/19 01:35:39;;;;;;;11.10;9.80;;;;;;;;;;521527;28;1492;-64
2023/01/19 01:35:55;;;;;;;11.23;9.50;;;;;;;;;;521957;28;1022;-64
2023/01/19 01:36:10;;;;;;;11.27;9.30;;;;;;;;;;523961;28;1097;-64
2023/01/19 01:36:30;;;;;;;11.57;9.48;;;;;;;;;;522924;28;1145;-65
2023/01/19 01:36:45;;;;;;;12.07;9.73;;;;;;;;;;523272;28;1066;-64